createdAt,value
2017-04-30T00:01:22.350Z,76.029
2017-04-30T00:04:16.015Z,76.246
2017-04-30T00:07:07.898Z,75.975
2017-04-30T00:10:01.563Z,76.639
2017-04-30T00:12:55.329Z,76.647
2017-04-30T00:15:48.961Z,76.245
2017-04-30T00:18:42.507Z,75.648
2017-04-30T00:21:36.064Z,75.704
2017-04-30T00:24:29.789Z,75.651
2017-04-30T00:27:23.373Z,75.952
2017-04-30T00:30:18.686Z,75.726
2017-04-30T00:33:10.644Z,75.518
2017-04-30T00:36:04.233Z,76.137
2017-04-30T00:38:57.872Z,76.643
2017-04-30T00:41:51.602Z,76.942
2017-04-30T00:44:45.187Z,76.472
2017-04-30T00:47:38.778Z,75.495
2017-04-30T00:50:32.859Z,75.253
2017-04-30T00:53:26.454Z,75.845
2017-04-30T00:56:20.140Z,76.193
2017-04-30T00:59:13.563Z,76.877
2017-04-30T01:02:09.002Z,76.486
2017-04-30T01:05:00.931Z,76.020
2017-04-30T01:07:56.201Z,77.310
2017-04-30T01:10:48.256Z,76.340
2017-04-30T01:13:41.917Z,76.472
2017-04-30T01:16:35.533Z,75.161
2017-04-30T01:19:29.249Z,76.684
2017-04-30T01:22:22.964Z,76.938
2017-04-30T01:25:16.638Z,77.079
2017-04-30T01:28:10.308Z,77.278
2017-04-30T01:31:03.856Z,77.007
2017-04-30T01:33:57.568Z,76.594
2017-04-30T01:36:51.122Z,76.946
2017-04-30T01:39:46.484Z,77.170
2017-04-30T01:42:38.449Z,76.941
2017-04-30T01:45:32.218Z,77.500
2017-04-30T01:48:27.575Z,77.429
2017-04-30T01:51:21.269Z,77.515
2017-04-30T01:54:13.719Z,77.134
2017-04-30T01:57:07.410Z,77.411
2017-04-30T02:00:01.017Z,77.643
2017-04-30T02:02:54.492Z,77.540
2017-04-30T02:05:48.189Z,77.958
2017-04-30T02:08:42.237Z,77.612
2017-04-30T02:11:35.696Z,76.849
2017-04-30T02:14:31.003Z,76.945
2017-04-30T02:17:23.049Z,77.475
2017-04-30T02:20:16.730Z,77.599
2017-04-30T02:23:10.449Z,78.458
2017-04-30T02:26:04.221Z,77.939
2017-04-30T02:28:59.746Z,78.025
2017-04-30T02:31:51.608Z,77.129
2017-04-30T02:34:45.345Z,77.204
2017-04-30T02:37:39.049Z,77.589
2017-04-30T02:40:32.667Z,78.698
2017-04-30T02:43:26.451Z,78.074
2017-04-30T02:46:20.584Z,78.125
2017-04-30T02:49:14.286Z,77.836
2017-04-30T02:52:09.763Z,78.167
2017-04-30T02:55:03.385Z,77.589
2017-04-30T02:57:55.418Z,77.717
2017-04-30T03:00:50.894Z,78.181
2017-04-30T03:03:42.857Z,78.045
2017-04-30T03:06:36.472Z,78.290
2017-04-30T03:09:30.165Z,78.255
2017-04-30T03:12:23.891Z,78.088
2017-04-30T03:15:19.093Z,79.005
2017-04-30T03:18:12.821Z,78.316
2017-04-30T03:21:04.621Z,78.292
2017-04-30T03:23:58.370Z,78.915
2017-04-30T03:26:53.645Z,78.836
2017-04-30T03:29:45.639Z,79.132
2017-04-30T03:32:39.176Z,79.280
2017-04-30T03:35:34.411Z,79.641
2017-04-30T03:38:26.237Z,79.294
2017-04-30T03:41:21.702Z,79.754
2017-04-30T03:44:13.967Z,79.329
2017-04-30T03:47:07.447Z,79.088
2017-04-30T03:50:01.055Z,79.905
2017-04-30T03:52:56.380Z,80.536
2017-04-30T03:55:48.234Z,81.187
2017-04-30T03:58:41.924Z,80.896
2017-04-30T04:01:35.488Z,81.116
2017-04-30T04:04:29.073Z,80.727
2017-04-30T04:07:22.627Z,80.393
2017-04-30T04:10:16.226Z,79.885
2017-04-30T04:13:09.823Z,79.627
2017-04-30T04:16:03.539Z,80.303
2017-04-30T04:18:57.359Z,80.207
2017-04-30T04:21:51.078Z,80.091
2017-04-30T04:24:46.448Z,80.291
2017-04-30T04:27:38.380Z,80.579
2017-04-30T04:30:32.017Z,79.932
2017-04-30T04:33:27.511Z,80.158
2017-04-30T04:36:19.371Z,80.188
2017-04-30T04:39:12.975Z,80.027
2017-04-30T04:42:06.743Z,80.433
2017-04-30T04:45:00.451Z,80.138
2017-04-30T04:47:54.292Z,80.017
2017-04-30T04:50:47.916Z,79.774
2017-04-30T04:53:42.113Z,79.775
2017-04-30T04:56:35.757Z,79.700
2017-04-30T04:59:29.489Z,80.086
2017-04-30T05:02:23.317Z,79.870
2017-04-30T05:05:17.004Z,77.522
2017-04-30T05:08:12.516Z,79.942
2017-04-30T05:11:04.484Z,80.112
2017-04-30T05:13:58.209Z,77.851
2017-04-30T05:16:51.952Z,80.316
2017-04-30T05:19:45.607Z,80.146
2017-04-30T05:22:39.337Z,78.969
2017-04-30T05:25:33.117Z,78.916
2017-04-30T05:28:26.781Z,78.981
2017-04-30T05:31:20.694Z,78.537
2017-04-30T05:34:14.482Z,76.183
2017-04-30T05:37:10.174Z,76.777
2017-04-30T05:40:02.566Z,74.347
2017-04-30T05:42:56.680Z,73.520
2017-04-30T05:45:50.888Z,71.816
2017-04-30T05:48:45.130Z,70.152
2017-04-30T05:51:39.592Z,68.782
2017-04-30T05:54:34.185Z,64.071
2017-04-30T05:57:28.744Z,52.584
2017-04-30T06:00:23.295Z,40.936
2017-04-30T06:03:17.821Z,38.625
2017-04-30T06:06:12.811Z,37.356
2017-04-30T06:09:07.481Z,35.513
2017-04-30T06:12:02.211Z,36.000
2017-04-30T06:14:56.895Z,39.401
2017-04-30T06:17:51.498Z,40.006
2017-04-30T06:20:45.903Z,41.525
2017-04-30T06:23:40.464Z,42.656
2017-04-30T06:26:34.934Z,44.588
2017-04-30T06:29:29.374Z,49.903
2017-04-30T06:32:23.738Z,45.708
2017-04-30T06:35:17.946Z,46.922
2017-04-30T06:38:12.326Z,47.816
2017-04-30T06:41:06.995Z,46.023
2017-04-30T06:44:01.318Z,45.845
2017-04-30T06:46:55.752Z,45.685
2017-04-30T06:49:50.368Z,43.833
2017-04-30T06:52:45.005Z,44.234
2017-04-30T06:55:39.485Z,42.923
2017-04-30T06:58:34.074Z,42.512
2017-04-30T07:01:28.702Z,43.278
2017-04-30T07:04:23.359Z,44.407
2017-04-30T07:07:18.024Z,44.512
2017-04-30T07:10:12.698Z,43.920
2017-04-30T07:13:07.426Z,42.816
2017-04-30T07:16:02.137Z,41.454
2017-04-30T07:18:56.621Z,40.345
2017-04-30T07:21:51.323Z,42.658
2017-04-30T07:24:45.842Z,43.388
2017-04-30T07:27:40.397Z,42.761
2017-04-30T07:30:34.735Z,44.688
2017-04-30T07:33:29.272Z,42.511
2017-04-30T07:36:23.603Z,41.428
2017-04-30T07:39:18.141Z,40.740
2017-04-30T07:42:12.648Z,41.062
2017-04-30T07:45:07.365Z,40.023
2017-04-30T07:48:02.020Z,39.196
2017-04-30T07:50:56.474Z,41.347
2017-04-30T07:53:50.756Z,36.984
2017-04-30T07:56:45.021Z,43.975
2017-04-30T07:59:40.708Z,36.280
2017-04-30T08:02:33.045Z,34.468
2017-04-30T08:05:27.244Z,43.375
2017-04-30T08:08:21.064Z,36.813
2017-04-30T08:11:14.962Z,38.606
2017-04-30T08:14:09.097Z,34.481
2017-04-30T08:17:03.195Z,33.435
2017-04-30T08:19:57.368Z,33.329
2017-04-30T08:22:51.527Z,34.329
2017-04-30T08:25:45.634Z,33.076
2017-04-30T08:28:41.545Z,30.584
2017-04-30T08:31:34.457Z,32.652
2017-04-30T08:34:30.213Z,30.273
2017-04-30T08:37:23.020Z,31.745
2017-04-30T08:40:17.506Z,28.255
2017-04-30T08:43:11.880Z,29.886
2017-04-30T08:46:05.934Z,32.879
2017-04-30T08:48:59.809Z,27.644
2017-04-30T08:51:53.319Z,32.528
2017-04-30T08:54:46.641Z,30.592
2017-04-30T08:57:40.071Z,30.000
2017-04-30T09:00:33.444Z,30.214
2017-04-30T09:03:27.499Z,28.770
2017-04-30T09:06:23.466Z,28.663
2017-04-30T09:09:17.347Z,24.977
2017-04-30T09:12:09.634Z,24.433
2017-04-30T09:15:03.495Z,27.574
2017-04-30T09:17:57.272Z,28.696
2017-04-30T09:20:50.999Z,30.694
2017-04-30T09:23:45.239Z,30.723
2017-04-30T09:26:39.359Z,33.053
2017-04-30T09:29:33.666Z,33.706
2017-04-30T09:32:27.886Z,35.625
2017-04-30T09:35:22.121Z,36.158
2017-04-30T09:38:16.411Z,35.935
2017-04-30T09:41:11.009Z,35.490
2017-04-30T09:44:05.513Z,34.346
2017-04-30T09:47:00.258Z,33.654
2017-04-30T09:49:54.947Z,32.869
2017-04-30T09:52:49.520Z,34.531
2017-04-30T09:55:44.005Z,35.687
2017-04-30T09:58:38.474Z,37.514
2017-04-30T10:01:33.109Z,38.088
2017-04-30T10:04:27.684Z,35.600
2017-04-30T10:07:22.302Z,32.834
2017-04-30T10:10:16.859Z,33.163
2017-04-30T10:13:11.352Z,33.885
2017-04-30T10:16:05.785Z,36.461
2017-04-30T10:19:00.380Z,35.033
2017-04-30T10:21:54.948Z,33.749
2017-04-30T10:24:49.444Z,35.751
2017-04-30T10:27:43.943Z,36.861
2017-04-30T10:30:38.419Z,37.687
2017-04-30T10:33:32.786Z,38.221
2017-04-30T10:36:27.245Z,37.713
2017-04-30T10:39:21.754Z,36.107
2017-04-30T10:42:16.121Z,37.301
2017-04-30T10:45:10.664Z,39.100
2017-04-30T10:48:05.025Z,40.982
2017-04-30T10:50:59.325Z,40.168
2017-04-30T10:53:53.698Z,40.942
2017-04-30T10:56:48.175Z,40.549
2017-04-30T10:59:42.635Z,40.543
2017-04-30T11:02:37.025Z,39.384
2017-04-30T11:05:31.389Z,41.166
2017-04-30T11:08:25.674Z,42.897
2017-04-30T11:11:19.821Z,43.206
2017-04-30T11:14:14.182Z,42.565
2017-04-30T11:17:08.454Z,43.184
2017-04-30T11:20:02.757Z,43.202
2017-04-30T11:22:57.020Z,42.870
2017-04-30T11:25:51.421Z,43.543
2017-04-30T11:28:45.668Z,44.114
2017-04-30T11:31:39.874Z,45.033
2017-04-30T11:34:34.085Z,45.477
2017-04-30T11:37:28.364Z,44.938
2017-04-30T11:40:22.629Z,45.225
2017-04-30T11:43:16.889Z,45.430
2017-04-30T11:46:11.127Z,45.326
2017-04-30T11:49:05.508Z,44.603
2017-04-30T11:51:59.796Z,45.617
2017-04-30T11:54:54.215Z,45.117
2017-04-30T11:57:48.536Z,44.768
2017-04-30T12:00:42.956Z,44.328
2017-04-30T12:03:37.260Z,44.031
2017-04-30T12:06:31.585Z,44.330
2017-04-30T12:09:25.880Z,45.006
2017-04-30T12:12:20.199Z,44.891
2017-04-30T12:15:14.491Z,45.175
2017-04-30T12:18:08.666Z,45.426
2017-04-30T12:21:02.827Z,45.164
2017-04-30T12:23:57.011Z,45.050
2017-04-30T12:26:51.212Z,44.604
2017-04-30T12:29:45.438Z,44.687
2017-04-30T12:32:39.724Z,43.787
2017-04-30T12:35:33.878Z,43.589
2017-04-30T12:38:28.051Z,43.837
2017-04-30T12:41:22.403Z,43.848
2017-04-30T12:44:18.542Z,43.978
2017-04-30T12:47:12.816Z,43.878
2017-04-30T12:50:05.429Z,43.925
2017-04-30T12:52:59.781Z,42.517
2017-04-30T12:55:54.096Z,42.858
2017-04-30T12:58:48.389Z,44.053
2017-04-30T13:01:44.336Z,41.519
2017-04-30T13:04:36.913Z,40.000
2017-04-30T13:07:31.146Z,40.539
2017-04-30T13:10:25.518Z,41.932
2017-04-30T13:13:19.902Z,43.558
2017-04-30T13:16:14.328Z,43.317
2017-04-30T13:19:09.059Z,48.056
2017-04-30T13:22:03.297Z,43.251
2017-04-30T13:24:57.770Z,42.008
2017-04-30T13:27:52.187Z,42.499
2017-04-30T13:30:46.660Z,41.725
2017-04-30T13:33:41.078Z,41.866
2017-04-30T13:36:35.558Z,42.399
2017-04-30T13:39:30.090Z,41.814
2017-04-30T13:42:24.559Z,42.333
2017-04-30T13:45:19.058Z,42.405
2017-04-30T13:48:13.488Z,42.798
2017-04-30T13:51:07.980Z,43.215
2017-04-30T13:54:02.438Z,43.722
2017-04-30T13:56:56.922Z,43.183
2017-04-30T13:59:51.322Z,41.252
2017-04-30T14:02:45.767Z,41.290
2017-04-30T14:05:40.231Z,41.499
2017-04-30T14:08:34.703Z,41.941
2017-04-30T14:11:29.247Z,41.055
2017-04-30T14:14:25.550Z,41.616
2017-04-30T14:17:18.217Z,42.936
2017-04-30T14:20:12.722Z,42.684
2017-04-30T14:23:07.144Z,40.500
2017-04-30T14:26:01.549Z,40.640
2017-04-30T14:28:56.010Z,41.107
2017-04-30T14:31:51.029Z,41.111
2017-04-30T14:34:45.451Z,41.590
2017-04-30T14:37:39.931Z,41.665
2017-04-30T14:40:34.510Z,40.296
2017-04-30T14:43:29.057Z,40.325
2017-04-30T14:46:25.338Z,41.961
2017-04-30T14:49:18.054Z,41.336
2017-04-30T14:52:12.461Z,42.673
2017-04-30T14:55:06.761Z,42.375
2017-04-30T14:58:01.185Z,42.076
2017-04-30T15:00:55.585Z,42.576
2017-04-30T15:03:49.954Z,42.367
2017-04-30T15:06:44.445Z,44.904
2017-04-30T15:09:38.882Z,44.724
2017-04-30T15:12:33.372Z,45.899
2017-04-30T15:15:27.837Z,45.993
2017-04-30T15:18:22.304Z,44.828
2017-04-30T15:21:16.677Z,45.272
2017-04-30T15:24:11.190Z,44.833
2017-04-30T15:27:05.618Z,46.118
2017-04-30T15:30:00.130Z,46.092
2017-04-30T15:32:54.607Z,46.816
2017-04-30T15:35:48.931Z,46.330
2017-04-30T15:38:43.541Z,44.928
2017-04-30T15:41:37.984Z,45.158
2017-04-30T15:44:32.387Z,45.492
2017-04-30T15:47:26.797Z,46.431
2017-04-30T15:50:21.181Z,47.129
2017-04-30T15:53:15.598Z,46.676
2017-04-30T15:56:10.007Z,48.179
2017-04-30T15:59:04.461Z,47.872
2017-04-30T16:01:59.017Z,46.907
2017-04-30T16:04:53.418Z,46.748
2017-04-30T16:07:47.718Z,47.119
2017-04-30T16:10:42.173Z,47.371
2017-04-30T16:13:36.563Z,48.195
2017-04-30T16:16:31.115Z,48.351
2017-04-30T16:19:25.497Z,48.736
2017-04-30T16:22:19.905Z,48.568
2017-04-30T16:25:14.298Z,48.944
2017-04-30T16:28:08.627Z,48.875
2017-04-30T16:31:03.066Z,48.014
2017-04-30T16:33:57.406Z,47.822
2017-04-30T16:36:51.992Z,47.947
2017-04-30T16:39:46.218Z,48.513
2017-04-30T16:42:40.506Z,49.089
2017-04-30T16:45:35.021Z,48.350
2017-04-30T16:48:29.430Z,49.368
2017-04-30T16:51:23.857Z,48.934
2017-04-30T16:54:18.260Z,49.404
2017-04-30T16:57:12.574Z,48.672
2017-04-30T17:00:07.037Z,48.833
2017-04-30T17:03:01.474Z,48.918
2017-04-30T17:05:55.814Z,49.749
2017-04-30T17:08:50.208Z,48.995
2017-04-30T17:11:44.579Z,48.459
2017-04-30T17:14:39.345Z,49.376
2017-04-30T17:17:33.343Z,48.972
2017-04-30T17:20:29.543Z,49.031
2017-04-30T17:23:22.400Z,48.765
2017-04-30T17:26:16.722Z,49.096
2017-04-30T17:29:11.156Z,49.522
2017-04-30T17:32:05.530Z,50.563
2017-04-30T17:34:59.872Z,50.081
2017-04-30T17:37:54.674Z,49.473
2017-04-30T17:40:49.124Z,48.822
2017-04-30T17:43:43.475Z,49.407
2017-04-30T17:46:37.824Z,49.979
2017-04-30T17:49:32.230Z,50.113
2017-04-30T17:52:27.051Z,49.788
2017-04-30T17:55:21.467Z,50.373
2017-04-30T17:58:17.827Z,49.427
2017-04-30T18:01:10.417Z,49.756
2017-04-30T18:04:05.100Z,50.122
2017-04-30T18:06:59.331Z,49.553
2017-04-30T18:09:53.742Z,50.408
2017-04-30T18:12:48.107Z,50.406
2017-04-30T18:15:42.601Z,50.608
2017-04-30T18:18:36.866Z,50.618
2017-04-30T18:21:33.000Z,50.458
2017-04-30T18:24:25.649Z,50.599
2017-04-30T18:27:20.116Z,50.596
2017-04-30T18:30:14.521Z,50.839
2017-04-30T18:33:08.851Z,50.713
2017-04-30T18:36:03.197Z,50.744
2017-04-30T18:38:57.559Z,50.669
2017-04-30T18:41:51.916Z,51.148
2017-04-30T18:44:46.158Z,51.276
2017-04-30T18:47:40.390Z,51.485
2017-04-30T18:53:29.037Z,51.750
2017-04-30T18:56:23.461Z,51.606
2017-04-30T18:59:17.855Z,52.233
2017-04-30T19:02:12.442Z,52.017
2017-04-30T19:05:06.774Z,53.684
2017-04-30T19:08:01.222Z,53.180
2017-04-30T19:10:55.603Z,53.211
2017-04-30T19:13:51.699Z,53.426
2017-04-30T19:16:44.342Z,53.689
2017-04-30T19:19:38.792Z,54.086
2017-04-30T19:22:33.125Z,53.953
2017-04-30T19:25:27.497Z,54.296
2017-04-30T19:28:23.576Z,54.524
2017-04-30T19:31:16.082Z,54.968
2017-04-30T19:34:10.373Z,55.095
2017-04-30T19:37:04.755Z,55.266
2017-04-30T19:39:59.079Z,55.455
2017-04-30T19:42:53.440Z,55.965
2017-04-30T19:45:47.894Z,56.182
2017-04-30T19:48:42.224Z,56.122
2017-04-30T19:51:36.677Z,56.912
2017-04-30T19:54:31.008Z,56.868
2017-04-30T19:57:25.351Z,56.550
2017-04-30T20:00:19.703Z,57.653
2017-04-30T20:03:15.739Z,57.922
2017-04-30T20:06:08.487Z,57.544
2017-04-30T20:09:02.753Z,58.198
2017-04-30T20:11:58.702Z,57.919
2017-04-30T20:14:51.368Z,58.708
2017-04-30T20:17:45.556Z,58.517
2017-04-30T20:20:39.947Z,59.176
2017-04-30T20:23:34.183Z,60.088
2017-04-30T20:26:28.460Z,59.395
2017-04-30T20:29:24.393Z,59.316
2017-04-30T20:32:17.013Z,59.638
2017-04-30T20:35:11.238Z,59.495
2017-04-30T20:38:05.425Z,59.996
2017-04-30T20:40:59.660Z,60.151
2017-04-30T20:43:53.984Z,60.371
2017-04-30T20:46:48.207Z,61.054
2017-04-30T20:49:42.436Z,60.715
2017-04-30T20:52:36.667Z,62.046
2017-04-30T20:55:30.907Z,60.920
2017-04-30T20:58:25.143Z,61.838
2017-04-30T21:01:19.448Z,61.069
2017-04-30T21:04:13.660Z,61.636
2017-04-30T21:07:07.952Z,62.577
2017-04-30T21:10:02.205Z,62.497
2017-04-30T21:12:56.583Z,61.839
2017-04-30T21:15:50.799Z,62.847
2017-04-30T21:18:45.127Z,62.659
2017-04-30T21:21:39.367Z,63.534
2017-04-30T21:24:33.655Z,62.921
2017-04-30T21:27:29.564Z,62.705
2017-04-30T21:30:22.129Z,63.686
2017-04-30T21:33:18.100Z,63.307
2017-04-30T21:36:10.631Z,63.032
2017-04-30T21:39:06.622Z,63.177
2017-04-30T21:41:59.167Z,62.769
2017-04-30T21:44:53.298Z,63.007
2017-04-30T21:47:47.799Z,63.334
2017-04-30T21:50:41.937Z,63.321
2017-04-30T21:53:36.196Z,63.366
2017-04-30T21:56:30.359Z,64.070
2017-04-30T21:59:24.565Z,63.708
2017-04-30T22:02:20.472Z,64.396
2017-04-30T22:05:14.787Z,64.171
2017-04-30T22:08:07.173Z,64.508
2017-04-30T22:11:01.265Z,64.551
2017-04-30T22:13:56.173Z,64.214
2017-04-30T22:16:49.866Z,64.467
2017-04-30T22:19:44.040Z,65.301
2017-04-30T22:22:38.231Z,64.903
2017-04-30T22:25:33.958Z,64.829
2017-04-30T22:28:26.613Z,64.084
2017-04-30T22:31:20.784Z,64.660
2017-04-30T22:34:15.022Z,65.416
2017-04-30T22:37:09.246Z,65.225
2017-04-30T22:40:03.434Z,65.746
2017-04-30T22:42:57.653Z,65.490
2017-04-30T22:45:51.799Z,66.214
2017-04-30T22:48:46.058Z,65.971
2017-04-30T22:51:40.415Z,66.217
2017-04-30T22:54:34.621Z,65.778
2017-04-30T22:57:28.933Z,65.754
2017-04-30T23:00:23.105Z,65.921
2017-04-30T23:03:17.367Z,65.695
2017-04-30T23:06:11.624Z,66.235
2017-04-30T23:09:05.900Z,66.026
2017-04-30T23:12:00.184Z,65.814
2017-04-30T23:14:54.481Z,66.207
2017-04-30T23:17:48.628Z,66.640
2017-04-30T23:20:42.903Z,66.631
2017-04-30T23:23:37.228Z,66.461
2017-04-30T23:26:33.140Z,66.296
2017-04-30T23:29:25.754Z,66.144
2017-04-30T23:32:19.861Z,66.393
2017-04-30T23:35:15.851Z,66.453
2017-04-30T23:38:08.382Z,66.559
2017-04-30T23:41:02.589Z,66.938
2017-04-30T23:43:56.858Z,66.808
2017-04-30T23:46:51.020Z,67.185
2017-04-30T23:49:45.222Z,67.509
2017-04-30T23:52:39.375Z,67.567
2017-04-30T23:55:35.330Z,68.068
2017-04-30T23:58:27.896Z,67.704
